Time;durP1;ratioP1;P1;durP2;ratioP2;P2;SDS_P1;SDS_P2;PMS_P1;PMS_P2;Temp;Humidity;BMP_temperature;BMP_pressure;BME280_temperature;BME280_humidity;BME280_pressure;Samples;Min_cycle;Max_cycle;Signal;HPM_P1;HPM_P2
2024/02/19 00:00:13;;;;;;;3.38;0.30;;;6.70;99.90;;;;;;5020603;28;20044;-68
2024/02/19 00:03:02;;;;;;;1.00;0.28;;;6.70;99.90;;;;;;5025834;28;21747;-69
2024/02/19 00:05:50;;;;;;;0.28;0.20;;;6.70;99.90;;;;;;5023923;28;20459;-68
2024/02/19 00:08:36;;;;;;;2.30;0.40;;;6.70;99.90;;;;;;5029677;28;20026;-68
2024/02/19 00:11:22;;;;;;;0.20;0.20;;;6.80;99.90;;;;;;5043855;28;20606;-69
2024/02/19 00:14:08;;;;;;;0.80;0.20;;;6.80;99.90;;;;;;5055402;28;20727;-69
2024/02/19 00:16:54;;;;;;;1.20;0.27;;;6.80;99.90;;;;;;5052585;28;20044;-68
2024/02/19 00:19:40;;;;;;;0.65;0.30;;;6.90;99.90;;;;;;5037421;28;20504;-68
2024/02/19 00:22:26;;;;;;;1.50;0.13;;;6.80;99.90;;;;;;5040403;28;20032;-69
2024/02/19 00:25:12;;;;;;;0.65;0.30;;;6.80;99.90;;;;;;5037419;28;20143;-68
2024/02/19 00:27:59;;;;;;;0.70;0.20;;;6.90;99.90;;;;;;5033668;28;20057;-68
2024/02/19 00:30:45;;;;;;;0.10;0.10;;;6.90;99.90;;;;;;5041749;28;20040;-68
2024/02/19 00:33:31;;;;;;;0.30;0.20;;;6.90;99.90;;;;;;5037762;28;20105;-69
2024/02/19 00:36:17;;;;;;;0.45;0.20;;;6.90;99.90;;;;;;5053468;28;20039;-68
2024/02/19 00:39:03;;;;;;;0.45;0.10;;;6.90;99.90;;;;;;5036114;28;20496;-68
2024/02/19 00:41:49;;;;;;;0.45;0.20;;;7.00;99.90;;;;;;5042295;28;20036;-68
2024/02/19 00:44:34;;;;;;;0.75;0.20;;;6.90;99.90;;;;;;5035473;28;20120;-68
2024/02/19 00:47:20;;;;;;;0.52;0.20;;;6.90;99.90;;;;;;5038728;28;20182;-68
2024/02/19 00:50:06;;;;;;;0.52;0.10;;;6.90;99.90;;;;;;5041541;28;20021;-68
2024/02/19 00:52:52;;;;;;;0.20;0.20;;;6.90;99.90;;;;;;5047037;28;20021;-68
2024/02/19 00:55:38;;;;;;;0.50;0.20;;;6.90;99.90;;;;;;5043305;28;20072;-69
2024/02/19 00:58:24;;;;;;;0.17;0.10;;;6.90;99.90;;;;;;5040903;28;20037;-69
2024/02/19 01:01:10;;;;;;;0.30;0.20;;;6.90;99.90;;;;;;5042194;28;20037;-68
2024/02/19 01:03:56;;;;;;;0.10;0.10;;;6.90;99.90;;;;;;5023866;28;20079;-68
2024/02/19 01:06:42;;;;;;;0.50;0.20;;;6.90;99.90;;;;;;5039131;28;20090;-67
2024/02/19 01:09:28;;;;;;;0.85;0.15;;;6.80;99.90;;;;;;5039600;28;20036;-69
2024/02/19 01:12:14;;;;;;;0.20;0.20;;;6.80;99.90;;;;;;5042994;28;20168;-68
2024/02/19 01:15:00;;;;;;;0.20;0.20;;;6.80;99.90;;;;;;5039664;28;20084;-67
2024/02/19 01:17:46;;;;;;;0.10;0.10;;;6.80;99.90;;;;;;5042304;28;20566;-71
2024/02/19 01:20:32;;;;;;;0.28;0.13;;;6.80;99.90;;;;;;5040161;28;20040;-68
2024/02/19 01:23:18;;;;;;;0.20;0.20;;;6.70;99.90;;;;;;5038629;28;20040;-67
2024/02/19 01:26:04;;;;;;;0.30;0.10;;;6.70;99.90;;;;;;5043232;28;20037;-67
2024/02/19 01:28:50;;;;;;;0.53;0.10;;;6.70;99.90;;;;;;5037055;28;20052;-68
2024/02/19 01:31:35;;;;;;;1.30;0.25;;;6.70;99.90;;;;;;5041474;28;20532;-68
2024/02/19 01:34:21;;;;;;;0.95;0.38;;;6.70;99.90;;;;;;5038092;28;20471;-69
2024/02/19 01:37:07;;;;;;;0.60;0.30;;;6.60;99.90;;;;;;5043180;28;20729;-69
2024/02/19 01:39:53;;;;;;;1.93;0.60;;;6.60;99.90;;;;;;5037240;28;20036;-68
2024/02/19 01:42:39;;;;;;;2.33;0.65;;;6.60;99.90;;;;;;5043081;28;20143;-68
2024/02/19 01:45:26;;;;;;;3.40;0.88;;;6.50;99.90;;;;;;5037865;28;20033;-67
2024/02/19 01:48:13;;;;;;;3.53;0.70;;;6.50;99.90;;;;;;5036340;28;20048;-68
2024/02/19 01:51:00;;;;;;;4.32;0.80;;;6.40;99.90;;;;;;5034283;28;20033;-68
2024/02/19 01:53:46;;;;;;;;;;;6.40;99.90;;;;;;5040914;28;20689;-68
2024/02/19 01:56:33;;;;;;;2.17;0.52;;;6.40;99.90;;;;;;5041392;28;19908;-68
2024/02/19 01:59:22;;;;;;;2.72;0.50;;;6.30;99.90;;;;;;5034735;28;20188;-68
2024/02/19 02:02:09;;;;;;;4.32;0.90;;;6.30;99.90;;;;;;5038003;28;20032;-68
2024/02/19 02:04:55;;;;;;;1.15;0.50;;;6.20;99.90;;;;;;5036689;28;20500;-68
2024/02/19 02:07:41;;;;;;;5.77;0.67;;;6.20;99.90;;;;;;5042074;28;20033;-70
2024/02/19 02:10:27;;;;;;;3.03;0.60;;;6.10;99.90;;;;;;5035553;28;20036;-68
2024/02/19 02:13:13;;;;;;;3.83;1.20;;;6.10;99.90;;;;;;5034758;28;21893;-68
2024/02/19 02:16:02;;;;;;;4.68;1.27;;;6.00;99.90;;;;;;5033011;28;20024;-67
2024/02/19 02:18:47;;;;;;;6.25;0.85;;;6.00;99.90;;;;;;5034362;28;20033;-67
2024/02/19 02:21:36;;;;;;;9.73;1.50;;;6.10;99.90;;;;;;5037179;28;20032;-68
2024/02/19 02:24:22;;;;;;;4.60;1.27;;;6.00;99.90;;;;;;5035568;28;20048;-67
2024/02/19 02:27:08;;;;;;;3.97;1.63;;;6.00;99.90;;;;;;5033240;28;20849;-68
2024/02/19 02:29:54;;;;;;;4.77;1.00;;;6.00;99.90;;;;;;5029214;28;20401;-67
2024/02/19 02:32:40;;;;;;;3.80;0.70;;;6.00;99.90;;;;;;5052606;28;20037;-67
2024/02/19 02:35:26;;;;;;;3.22;0.85;;;6.00;99.90;;;;;;5048889;28;20029;-68
2024/02/19 02:38:12;;;;;;;3.05;0.52;;;5.90;99.90;;;;;;5047672;28;20056;-68
2024/02/19 02:40:57;;;;;;;2.55;0.77;;;5.80;99.90;;;;;;5058984;28;20032;-69
2024/02/19 02:43:43;;;;;;;3.22;0.95;;;5.80;99.90;;;;;;5050039;28;20033;-68
2024/02/19 02:46:29;;;;;;;2.95;0.93;;;5.70;99.90;;;;;;5057229;28;20029;-69
2024/02/19 02:49:15;;;;;;;4.10;0.60;;;5.70;99.90;;;;;;5049419;28;20032;-68
2024/02/19 02:52:01;;;;;;;2.05;0.60;;;5.60;99.90;;;;;;5044350;28;20131;-69
2024/02/19 02:54:47;;;;;;;4.40;1.35;;;5.70;99.90;;;;;;5048289;28;20522;-69
2024/02/19 02:57:32;;;;;;;5.88;0.70;;;5.70;99.90;;;;;;5053219;28;20111;-67
2024/02/19 03:00:19;;;;;;;4.18;0.90;;;5.60;99.90;;;;;;5050452;28;20032;-68
2024/02/19 03:03:05;;;;;;;4.47;0.70;;;5.60;99.90;;;;;;5043389;28;20549;-68
2024/02/19 03:05:50;;;;;;;1.30;0.57;;;5.50;99.90;;;;;;5054569;28;20039;-68
2024/02/19 03:08:36;;;;;;;2.35;0.40;;;5.50;99.90;;;;;;5040280;28;20033;-68
2024/02/19 03:11:22;;;;;;;1.10;0.57;;;5.50;99.90;;;;;;5059380;28;20466;-68
2024/02/19 03:14:13;;;;;;;2.13;0.50;;;5.50;99.90;;;;;;5048344;28;20040;-67
2024/02/19 03:16:59;;;;;;;4.30;0.80;;;5.50;99.90;;;;;;5036838;28;20036;-67
2024/02/19 03:19:45;;;;;;;4.15;0.95;;;5.40;99.90;;;;;;5043196;28;20519;-67
2024/02/19 03:22:31;;;;;;;2.13;0.53;;;5.40;99.90;;;;;;5053350;28;20032;-67
2024/02/19 03:25:18;;;;;;;4.90;1.75;;;5.30;99.90;;;;;;5048413;28;20279;-68
2024/02/19 03:28:04;;;;;;;2.55;0.70;;;5.30;99.90;;;;;;5045358;28;20531;-68
2024/02/19 03:30:50;;;;;;;2.45;0.45;;;5.30;99.90;;;;;;5054487;28;20672;-68
2024/02/19 03:33:36;;;;;;;3.17;0.80;;;5.20;99.90;;;;;;5045324;28;20037;-68
2024/02/19 03:36:22;;;;;;;0.90;0.40;;;5.20;99.90;;;;;;5058227;28;20062;-68
2024/02/19 03:39:08;;;;;;;2.13;0.68;;;5.20;99.90;;;;;;5049103;28;20040;-68
2024/02/19 03:41:55;;;;;;;1.15;0.50;;;5.20;99.90;;;;;;5056821;28;20040;-68
2024/02/19 03:44:41;;;;;;;2.25;0.45;;;5.20;99.90;;;;;;5046773;28;20117;-68
2024/02/19 03:47:26;;;;;;;3.97;0.45;;;5.20;99.90;;;;;;5051367;28;20043;-68
2024/02/19 03:50:12;;;;;;;2.35;0.55;;;5.10;99.90;;;;;;5045115;28;20514;-68
2024/02/19 03:52:58;;;;;;;2.72;0.45;;;5.10;99.90;;;;;;5056594;28;20032;-68
2024/02/19 03:55:44;;;;;;;2.45;0.40;;;5.10;99.90;;;;;;5053334;28;20112;-68
2024/02/19 03:58:30;;;;;;;1.50;0.35;;;5.20;99.90;;;;;;5055685;28;20036;-67
2024/02/19 04:01:17;;;;;;;0.90;0.30;;;5.20;99.90;;;;;;5043431;28;20049;-68
2024/02/19 04:04:03;;;;;;;0.93;0.38;;;5.20;99.90;;;;;;5032615;28;20060;-68
2024/02/19 04:06:49;;;;;;;3.63;0.30;;;5.20;99.90;;;;;;5042100;28;20451;-68
2024/02/19 04:09:35;;;;;;;1.45;0.20;;;5.20;99.90;;;;;;5034414;28;20040;-67
2024/02/19 04:12:21;;;;;;;0.20;0.20;;;5.10;99.90;;;;;;5043656;28;20041;-68
2024/02/19 04:15:07;;;;;;;1.87;0.20;;;5.10;99.90;;;;;;5040981;28;20061;-68
2024/02/19 04:17:53;;;;;;;1.25;0.10;;;5.10;99.90;;;;;;5043734;28;20044;-68
2024/02/19 04:20:40;;;;;;;1.38;0.38;;;5.20;99.90;;;;;;5026630;28;20052;-68
2024/02/19 04:23:25;;;;;;;0.50;0.20;;;5.20;99.90;;;;;;5040487;28;20132;-68
2024/02/19 04:26:11;;;;;;;1.13;0.20;;;5.20;99.90;;;;;;5039465;28;20747;-68
2024/02/19 04:28:57;;;;;;;0.40;0.30;;;5.20;99.90;;;;;;5041245;28;20029;-69
2024/02/19 04:31:43;;;;;;;0.77;0.30;;;5.20;99.90;;;;;;5056145;28;20122;-68
2024/02/19 04:34:29;;;;;;;1.17;0.30;;;5.20;99.90;;;;;;5057801;28;20040;-67
2024/02/19 04:37:15;;;;;;;2.63;0.60;;;5.20;99.90;;;;;;5058121;28;20575;-67
2024/02/19 04:40:02;;;;;;;2.17;0.50;;;5.20;99.90;;;;;;5060029;28;20040;-67
2024/02/19 04:42:48;;;;;;;3.50;0.43;;;5.20;99.90;;;;;;5061780;28;20035;-69
2024/02/19 04:45:34;;;;;;;1.23;0.40;;;5.20;99.90;;;;;;5062027;28;20420;-68
2024/02/19 04:48:20;;;;;;;1.98;0.35;;;5.10;99.90;;;;;;5055130;28;20381;-68
2024/02/19 04:51:06;;;;;;;1.58;0.40;;;5.00;99.90;;;;;;5064474;28;20024;-68
2024/02/19 04:53:52;;;;;;;0.73;0.30;;;5.00;99.90;;;;;;5057962;28;20599;-68
2024/02/19 04:56:38;;;;;;;3.53;0.40;;;5.00;99.90;;;;;;5068709;28;20056;-67
2024/02/19 04:59:24;;;;;;;2.17;0.47;;;5.00;99.90;;;;;;5058131;28;20048;-67
2024/02/19 05:02:09;;;;;;;2.77;0.57;;;5.00;99.90;;;;;;5060295;28;20036;-68
2024/02/19 05:04:55;;;;;;;0.65;0.40;;;5.00;99.90;;;;;;5056217;28;20436;-68
2024/02/19 05:07:41;;;;;;;2.53;0.50;;;5.00;99.90;;;;;;5069271;28;20033;-68
2024/02/19 05:10:27;;;;;;;1.70;0.50;;;5.00;99.90;;;;;;5055280;28;20775;-68
2024/02/19 05:13:13;;;;;;;1.98;0.50;;;5.10;99.90;;;;;;5053579;28;20024;-68
2024/02/19 05:15:59;;;;;;;2.47;0.37;;;5.10;99.90;;;;;;5059684;28;21238;-68
2024/02/19 05:18:46;;;;;;;1.73;0.30;;;5.00;99.90;;;;;;5061125;28;20518;-68
2024/02/19 05:21:33;;;;;;;;;;;5.10;99.90;;;;;;5063087;28;20032;-68
2024/02/19 05:24:19;;;;;;;1.23;0.20;;;5.10;99.90;;;;;;5052813;28;19916;-68
2024/02/19 05:27:04;;;;;;;0.32;0.30;;;5.10;99.90;;;;;;5061023;28;20024;-68
2024/02/19 05:29:51;;;;;;;0.38;0.20;;;5.10;99.90;;;;;;5056786;28;20053;-68
2024/02/19 05:32:37;;;;;;;0.52;0.20;;;5.10;99.90;;;;;;5059077;28;20573;-68
2024/02/19 05:35:24;;;;;;;1.97;0.23;;;5.00;99.90;;;;;;5057638;28;20032;-69
2024/02/19 05:38:11;;;;;;;0.82;0.10;;;5.00;99.90;;;;;;5060462;28;20032;-68
2024/02/19 05:40:57;;;;;;;0.20;0.20;;;5.10;99.90;;;;;;5059986;28;20041;-68
2024/02/19 05:43:43;;;;;;;0.40;0.30;;;5.10;99.90;;;;;;5058795;28;20067;-68
2024/02/19 05:46:31;;;;;;;0.30;0.30;;;5.20;99.90;;;;;;5061146;28;20453;-68
2024/02/19 05:49:17;;;;;;;1.48;1.00;;;5.20;99.90;;;;;;5055211;28;20504;-68
2024/02/19 05:52:03;;;;;;;1.65;0.40;;;5.10;99.90;;;;;;5060573;28;20032;-68
2024/02/19 05:54:49;;;;;;;2.03;0.60;;;5.20;99.90;;;;;;5045512;28;20107;-68
2024/02/19 05:57:37;;;;;;;0.95;0.20;;;5.20;99.90;;;;;;5061070;28;21178;-68
2024/02/19 06:00:23;;;;;;;0.43;0.25;;;5.20;99.90;;;;;;5058614;28;20036;-68
2024/02/19 06:03:09;;;;;;;0.88;0.30;;;5.10;99.90;;;;;;5058986;28;20028;-68
2024/02/19 06:05:55;;;;;;;0.77;0.30;;;5.20;99.90;;;;;;5059597;28;20102;-68
2024/02/19 06:08:41;;;;;;;1.30;0.40;;;5.20;99.90;;;;;;5053981;28;20170;-68
2024/02/19 06:11:27;;;;;;;2.27;0.40;;;5.20;99.90;;;;;;5057242;28;20039;-68
2024/02/19 06:14:13;;;;;;;1.02;0.43;;;5.20;99.90;;;;;;5057946;28;20021;-69
2024/02/19 06:16:59;;;;;;;0.88;0.32;;;5.20;99.90;;;;;;5053617;28;20041;-68
2024/02/19 06:19:45;;;;;;;0.50;0.30;;;5.30;99.90;;;;;;5056854;28;20054;-68
2024/02/19 06:22:31;;;;;;;0.95;0.30;;;5.30;99.90;;;;;;5058188;28;20044;-68
2024/02/19 06:25:17;;;;;;;0.30;0.22;;;5.30;99.90;;;;;;5055697;28;20087;-68
2024/02/19 06:28:03;;;;;;;0.13;0.13;;;5.30;99.90;;;;;;5055160;28;20036;-68
2024/02/19 06:30:49;;;;;;;1.88;0.20;;;5.30;99.90;;;;;;5058784;28;20116;-68
2024/02/19 06:33:35;;;;;;;1.73;0.30;;;5.30;99.90;;;;;;5051686;28;20033;-68
2024/02/19 06:36:22;;;;;;;0.25;0.25;;;5.30;99.90;;;;;;5056289;28;20144;-67
2024/02/19 06:39:07;;;;;;;0.40;0.30;;;5.30;99.90;;;;;;5053330;28;20044;-67
2024/02/19 06:41:53;;;;;;;0.35;0.28;;;5.30;99.90;;;;;;5059634;28;20498;-68
2024/02/19 06:44:39;;;;;;;2.47;0.40;;;5.30;99.90;;;;;;5056943;28;20411;-67
2024/02/19 06:47:25;;;;;;;3.20;0.40;;;5.20;99.90;;;;;;5059114;28;20032;-68
2024/02/19 06:50:11;;;;;;;1.55;0.40;;;5.20;99.90;;;;;;5057812;28;20091;-68
2024/02/19 06:52:57;;;;;;;0.25;0.22;;;5.30;99.90;;;;;;5058678;28;20034;-68
2024/02/19 06:55:43;;;;;;;5.22;1.10;;;5.30;99.90;;;;;;5058780;28;20118;-68
2024/02/19 06:58:29;;;;;;;0.73;0.30;;;5.30;99.90;;;;;;5057024;28;20112;-68
2024/02/19 07:01:15;;;;;;;0.60;0.50;;;5.30;99.90;;;;;;5060216;28;20044;-68
2024/02/19 07:04:01;;;;;;;2.72;0.50;;;5.40;99.90;;;;;;5054552;28;20094;-68
2024/02/19 07:06:47;;;;;;;0.70;0.52;;;5.40;99.90;;;;;;5059687;28;20484;-68
2024/02/19 07:09:33;;;;;;;2.97;0.70;;;5.40;99.90;;;;;;5053451;28;20036;-68
2024/02/19 07:12:19;;;;;;;2.08;0.73;;;5.40;99.90;;;;;;5059841;28;20523;-69
2024/02/19 07:15:06;;;;;;;4.57;1.07;;;5.40;99.90;;;;;;5055566;28;20043;-66
2024/02/19 07:17:52;;;;;;;1.08;0.63;;;5.50;99.90;;;;;;5058479;28;20120;-66
2024/02/19 07:20:37;;;;;;;0.67;0.50;;;5.50;99.90;;;;;;5054545;28;20037;-68
2024/02/19 07:23:23;;;;;;;1.55;0.63;;;5.60;99.90;;;;;;5057426;28;20516;-68
2024/02/19 07:26:09;;;;;;;1.73;0.60;;;5.60;99.90;;;;;;5059585;28;20506;-72
2024/02/19 07:28:55;;;;;;;1.87;0.80;;;5.60;99.90;;;;;;5061329;28;20044;-72
2024/02/19 07:31:42;;;;;;;2.40;0.63;;;5.60;99.90;;;;;;5064097;28;20329;-71
2024/02/19 07:34:28;;;;;;;0.82;0.50;;;5.60;99.90;;;;;;5053387;28;20044;-70
2024/02/19 07:37:14;;;;;;;2.58;0.65;;;5.60;99.90;;;;;;5062461;28;20032;-72
2024/02/19 07:40:02;;;;;;;2.42;0.60;;;5.70;99.90;;;;;;5062620;28;20045;-71
2024/02/19 07:42:52;;;;;;;3.83;0.93;;;5.70;99.90;;;;;;5065606;28;20903;-71
2024/02/19 07:45:39;;;;;;;4.72;0.60;;;5.70;99.90;;;;;;5064200;28;20037;-71
2024/02/19 07:48:25;;;;;;;5.00;0.73;;;5.80;99.90;;;;;;5063919;28;20484;-68
2024/02/19 07:51:14;;;;;;;1.33;0.60;;;5.80;99.90;;;;;;5060198;28;20101;-67
2024/02/19 07:54:00;;;;;;;3.35;0.60;;;5.70;99.90;;;;;;5063417;28;20424;-67
2024/02/19 07:56:46;;;;;;;1.60;0.68;;;5.70;99.90;;;;;;5065447;28;20066;-67
2024/02/19 07:59:32;;;;;;;2.90;0.60;;;5.80;99.90;;;;;;5059194;28;20068;-67
2024/02/19 08:02:18;;;;;;;1.33;0.50;;;5.80;99.90;;;;;;5057142;28;20101;-70
2024/02/19 08:05:04;;;;;;;2.35;0.57;;;5.90;99.90;;;;;;5063042;28;20043;-69
2024/02/19 08:07:50;;;;;;;2.05;0.70;;;5.90;99.90;;;;;;5062854;28;20412;-68
2024/02/19 08:10:36;;;;;;;4.53;0.82;;;6.00;99.90;;;;;;5046303;28;20074;-68
2024/02/19 08:13:22;;;;;;;3.00;1.10;;;6.00;99.90;;;;;;5052803;28;20412;-68
2024/02/19 08:16:09;;;;;;;1.98;0.68;;;6.00;99.90;;;;;;5059302;28;20119;-67
2024/02/19 08:18:57;;;;;;;4.55;0.68;;;6.00;99.90;;;;;;5061446;28;20040;-68
2024/02/19 08:21:44;;;;;;;5.45;1.15;;;6.10;99.90;;;;;;5047293;28;20048;-69
2024/02/19 08:24:30;;;;;;;5.22;1.15;;;6.10;99.90;;;;;;5058837;28;20036;-69
2024/02/19 08:27:16;;;;;;;5.35;1.48;;;6.10;99.90;;;;;;5060534;28;20194;-69
2024/02/19 08:30:02;;;;;;;4.37;1.10;;;6.10;99.90;;;;;;5061441;28;20572;-69
2024/02/19 08:32:48;;;;;;;3.08;1.30;;;6.10;99.90;;;;;;5060799;28;20674;-69
2024/02/19 08:35:34;;;;;;;8.32;1.13;;;6.20;99.90;;;;;;5048059;28;20086;-68
2024/02/19 08:38:20;;;;;;;2.30;1.00;;;6.30;99.90;;;;;;5067754;28;20025;-68
2024/02/19 08:41:06;;;;;;;3.53;0.85;;;6.40;99.90;;;;;;5061869;28;20061;-69
2024/02/19 08:43:52;;;;;;;5.83;1.00;;;6.50;99.90;;;;;;5059802;28;20032;-68
2024/02/19 08:46:38;;;;;;;2.60;0.90;;;6.60;99.90;;;;;;5066676;28;20030;-68
2024/02/19 08:49:25;;;;;;;2.63;0.90;;;6.60;99.90;;;;;;5062407;28;20088;-68
2024/02/19 08:52:12;;;;;;;9.10;1.33;;;6.60;99.90;;;;;;5061863;28;20664;-69
2024/02/19 08:54:58;;;;;;;4.07;0.95;;;6.70;99.90;;;;;;5059728;28;20071;-68
2024/02/19 08:57:44;;;;;;;2.53;1.20;;;6.60;99.90;;;;;;5066289;28;20048;-69
2024/02/19 09:00:30;;;;;;;11.45;2.42;;;6.60;99.90;;;;;;5061008;28;20288;-68
2024/02/19 09:03:17;;;;;;;8.35;2.60;;;6.50;99.90;;;;;;5058334;28;20036;-69
2024/02/19 09:06:07;;;;;;;5.55;2.25;;;6.60;99.90;;;;;;5066107;28;20105;-68
2024/02/19 09:08:52;;;;;;;7.60;2.60;;;6.60;99.90;;;;;;5064205;28;20042;-68
2024/02/19 09:11:38;;;;;;;7.03;2.37;;;6.60;99.90;;;;;;5063001;28;20029;-67
2024/02/19 09:14:28;;;;;;;7.87;2.23;;;6.70;99.90;;;;;;5058381;28;20119;-68
2024/02/19 09:17:14;;;;;;;6.97;3.13;;;6.60;99.90;;;;;;5062316;28;20182;-69
2024/02/19 09:20:00;;;;;;;;;;;6.70;99.90;;;;;;5049132;28;20031;-68
2024/02/19 09:22:46;;;;;;;6.88;2.47;;;6.70;99.90;;;;;;5057826;28;20003;-68
2024/02/19 09:25:32;;;;;;;3.53;2.00;;;6.70;99.90;;;;;;5058600;28;20033;-68
2024/02/19 09:28:18;;;;;;;7.55;3.17;;;6.80;99.90;;;;;;5059081;28;20527;-69
2024/02/19 09:31:05;;;;;;;2.75;1.80;;;6.90;99.90;;;;;;5057572;28;20028;-69
2024/02/19 09:33:50;;;;;;;6.13;2.10;;;6.90;99.90;;;;;;5061466;28;20036;-68
2024/02/19 09:36:36;;;;;;;5.50;1.63;;;7.00;99.90;;;;;;5061815;28;20684;-68
2024/02/19 09:39:22;;;;;;;3.63;1.85;;;7.00;99.90;;;;;;5059696;28;20048;-69
2024/02/19 09:42:09;;;;;;;8.07;2.28;;;7.00;99.90;;;;;;5060323;28;20025;-69
2024/02/19 09:44:55;;;;;;;10.35;2.88;;;7.00;99.90;;;;;;5059153;28;20036;-69
2024/02/19 09:47:46;;;;;;;5.87;2.87;;;6.90;99.90;;;;;;5062303;28;20700;-69
2024/02/19 09:50:33;;;;;;;8.75;3.20;;;7.00;99.90;;;;;;5058242;28;20087;-69
2024/02/19 09:53:27;;;;;;;6.68;3.60;;;7.00;99.90;;;;;;5057652;28;20086;-69
2024/02/19 09:56:17;;;;;;;11.68;4.00;;;7.10;99.90;;;;;;5056449;28;20128;-69
2024/02/19 09:59:05;;;;;;;10.15;4.07;;;7.10;99.90;;;;;;5055954;28;20064;-69
2024/02/19 10:01:51;;;;;;;9.57;4.57;;;7.10;99.90;;;;;;5062990;28;20059;-69
2024/02/19 10:04:40;;;;;;;13.30;4.90;;;7.30;99.90;;;;;;5054926;28;20119;-68
2024/02/19 10:07:26;;;;;;;13.32;4.18;;;7.40;99.90;;;;;;5058251;28;20039;-68
2024/02/19 10:10:12;;;;;;;11.13;3.92;;;7.40;99.90;;;;;;5057464;28;20107;-69
2024/02/19 10:12:58;;;;;;;12.33;4.20;;;7.40;99.90;;;;;;5058507;28;20109;-69
2024/02/19 10:15:44;;;;;;;9.67;3.40;;;7.50;99.90;;;;;;5057165;28;20039;-68
2024/02/19 10:18:30;;;;;;;7.67;3.33;;;7.40;99.90;;;;;;5058590;28;20032;-69
2024/02/19 10:21:16;;;;;;;10.25;3.20;;;7.50;99.90;;;;;;5058957;28;20056;-71
2024/02/19 10:24:02;;;;;;;5.75;3.00;;;7.70;99.90;;;;;;5053778;28;20661;-68
2024/02/19 10:26:48;;;;;;;5.90;2.80;;;7.80;99.90;;;;;;5061917;28;20404;-67
2024/02/19 10:29:34;;;;;;;4.78;2.72;;;7.90;99.90;;;;;;5055552;28;20037;-68
2024/02/19 10:32:20;;;;;;;5.10;2.47;;;8.00;99.90;;;;;;5055447;28;20039;-68
2024/02/19 10:35:06;;;;;;;5.47;2.78;;;8.10;99.90;;;;;;5057979;28;20476;-69
2024/02/19 10:37:53;;;;;;;4.47;2.55;;;8.20;99.90;;;;;;5060232;28;20044;-69
2024/02/19 10:40:39;;;;;;;8.65;2.35;;;8.20;99.90;;;;;;5058030;28;20024;-68
2024/02/19 10:43:25;;;;;;;4.80;2.30;;;8.30;99.90;;;;;;5056574;28;20044;-69
2024/02/19 10:46:15;;;;;;;4.95;2.00;;;8.20;99.90;;;;;;5059523;28;20094;-67
2024/02/19 10:49:01;;;;;;;6.72;2.05;;;8.30;99.90;;;;;;5053317;28;20028;-68
2024/02/19 10:51:48;;;;;;;7.30;2.10;;;8.30;99.90;;;;;;5060206;28;20443;-68
2024/02/19 10:54:34;;;;;;;3.47;1.80;;;8.30;99.90;;;;;;5057493;28;20556;-69
2024/02/19 10:57:20;;;;;;;3.72;1.83;;;8.40;99.90;;;;;;5056157;28;20031;-69
2024/02/19 11:00:08;;;;;;;4.13;1.77;;;8.40;99.90;;;;;;5054049;28;20037;-69
2024/02/19 11:03:05;;;;;;;4.45;1.55;;;8.30;99.90;;;;;;5045721;28;20048;-69
2024/02/19 11:05:51;;;;;;;5.25;2.10;;;8.30;99.90;;;;;;5059553;28;20039;-69
2024/02/19 11:08:40;;;;;;;4.87;1.90;;;8.30;99.90;;;;;;5043900;28;20054;-68
2024/02/19 11:11:26;;;;;;;5.40;1.80;;;8.40;99.90;;;;;;5060538;28;20275;-68
2024/02/19 11:14:12;;;;;;;6.00;2.03;;;8.40;99.90;;;;;;5057374;28;20024;-68
2024/02/19 11:17:00;;;;;;;4.93;1.90;;;8.40;99.90;;;;;;5054060;28;20028;-68
2024/02/19 11:19:46;;;;;;;6.88;1.90;;;8.30;99.90;;;;;;5058468;28;20044;-68
2024/02/19 11:22:32;;;;;;;5.72;1.95;;;8.20;99.90;;;;;;5060869;28;20837;-68
2024/02/19 11:25:18;;;;;;;6.75;2.40;;;8.10;99.90;;;;;;5057982;28;20093;-68
2024/02/19 11:28:04;;;;;;;8.45;2.70;;;8.10;99.90;;;;;;5056701;28;20080;-69
2024/02/19 11:31:01;;;;;;;10.77;2.83;;;8.00;99.90;;;;;;5055168;28;20032;-68
2024/02/19 11:33:50;;;;;;;6.65;3.10;;;8.00;99.90;;;;;;5053317;28;20380;-69
2024/02/19 11:36:36;;;;;;;5.32;2.95;;;7.90;99.90;;;;;;5055493;28;20032;-69
2024/02/19 11:39:22;;;;;;;9.82;3.90;;;7.90;99.90;;;;;;5055656;28;20044;-69
2024/02/19 11:42:10;;;;;;;15.95;4.03;;;7.70;99.90;;;;;;5059126;28;20039;-67
2024/02/19 11:44:57;;;;;;;13.63;4.55;;;7.70;99.90;;;;;;5057285;28;20032;-67
2024/02/19 11:47:43;;;;;;;14.05;4.50;;;7.70;99.90;;;;;;5056847;28;20120;-67
2024/02/19 11:50:30;;;;;;;18.30;4.72;;;7.80;99.90;;;;;;5056703;28;20599;-68
2024/02/19 11:53:16;;;;;;;13.82;4.20;;;7.80;99.90;;;;;;5056650;28;20037;-69
2024/02/19 11:56:02;;;;;;;14.20;4.70;;;7.80;99.90;;;;;;5055609;28;20636;-69
2024/02/19 11:58:51;;;;;;;10.40;4.17;;;7.80;99.90;;;;;;5052339;28;20286;-68
2024/02/19 12:01:38;;;;;;;16.45;5.22;;;7.80;99.90;;;;;;5058953;28;20040;-69
2024/02/19 12:04:26;;;;;;;17.10;4.97;;;7.70;99.90;;;;;;5055950;28;20033;-69
2024/02/19 12:07:12;;;;;;;11.15;4.22;;;7.80;99.90;;;;;;5043355;28;20024;-69
2024/02/19 12:09:59;;;;;;;14.23;4.83;;;7.80;99.90;;;;;;5055413;28;20536;-68
2024/02/19 12:12:45;;;;;;;14.77;5.20;;;7.80;99.90;;;;;;5055209;28;20032;-69
2024/02/19 12:15:31;;;;;;;14.37;4.87;;;7.80;99.90;;;;;;5059966;28;20788;-69
2024/02/19 12:18:18;;;;;;;14.75;4.82;;;7.90;99.90;;;;;;5048639;28;20033;-69
2024/02/19 12:21:05;;;;;;;15.02;4.78;;;7.90;99.90;;;;;;5056483;28;20039;-69
2024/02/19 12:23:52;;;;;;;8.82;3.85;;;7.90;99.90;;;;;;5055193;28;20095;-69
2024/02/19 12:26:38;;;;;;;16.27;4.50;;;8.00;99.90;;;;;;5059596;28;20033;-69
2024/02/19 12:29:24;;;;;;;14.18;4.30;;;8.00;99.90;;;;;;5056495;28;20111;-69
2024/02/19 12:32:10;;;;;;;13.15;4.35;;;7.90;99.90;;;;;;5060757;28;20036;-69
2024/02/19 12:34:56;;;;;;;12.80;4.00;;;8.00;99.90;;;;;;5060773;28;20031;-69
2024/02/19 12:37:42;;;;;;;11.30;4.30;;;7.90;99.90;;;;;;5060307;28;20086;-69
2024/02/19 12:40:28;;;;;;;16.15;4.22;;;8.00;99.90;;;;;;5059580;28;20043;-68
2024/02/19 12:43:14;;;;;;;10.75;4.63;;;8.10;99.90;;;;;;5060083;28;20156;-68
2024/02/19 12:46:01;;;;;;;16.27;4.53;;;8.30;99.90;;;;;;5061204;28;20033;-68
2024/02/19 12:48:46;;;;;;;11.60;4.47;;;8.40;99.90;;;;;;5061333;28;20119;-68
2024/02/19 12:51:33;;;;;;;15.02;4.65;;;8.40;99.90;;;;;;5061010;28;20032;-68
2024/02/19 12:54:22;;;;;;;15.00;4.47;;;8.40;99.90;;;;;;5060119;28;20031;-68
2024/02/19 12:57:09;;;;;;;12.70;3.90;;;8.40;99.90;;;;;;5062512;28;20036;-68
2024/02/19 12:59:57;;;;;;;15.98;5.20;;;8.30;99.90;;;;;;5060403;28;20128;-68
2024/02/19 13:02:43;;;;;;;11.35;3.72;;;8.30;99.90;;;;;;5060782;28;20041;-68
2024/02/19 13:05:29;;;;;;;10.93;4.63;;;8.40;99.90;;;;;;5060166;28;20637;-68
2024/02/19 13:08:17;;;;;;;16.02;4.55;;;8.40;99.90;;;;;;5060429;28;20701;-69
2024/02/19 13:11:03;;;;;;;12.38;3.72;;;8.40;99.90;;;;;;5054300;28;20058;-68
2024/02/19 13:13:49;;;;;;;11.38;4.40;;;8.40;99.90;;;;;;5057917;28;20040;-68
2024/02/19 13:16:35;;;;;;;13.25;4.90;;;8.40;99.90;;;;;;5062642;28;20039;-68
2024/02/19 13:19:21;;;;;;;14.27;4.65;;;8.30;99.90;;;;;;5051830;28;20036;-68
2024/02/19 13:22:08;;;;;;;12.95;4.20;;;8.30;99.90;;;;;;5063888;28;20561;-68
2024/02/19 13:24:54;;;;;;;11.30;3.95;;;8.30;99.90;;;;;;5056604;28;21485;-68
2024/02/19 13:27:40;;;;;;;11.77;4.50;;;8.40;99.90;;;;;;5061635;28;20048;-68
2024/02/19 13:30:25;;;;;;;15.55;4.40;;;8.30;99.90;;;;;;5061147;28;20047;-69
2024/02/19 13:33:11;;;;;;;10.07;3.88;;;8.40;99.90;;;;;;5048821;28;20043;-68
2024/02/19 13:35:57;;;;;;;10.40;4.65;;;8.40;99.90;;;;;;5061384;28;20061;-69
2024/02/19 13:38:45;;;;;;;14.68;4.65;;;8.30;99.90;;;;;;5052967;28;20029;-68
2024/02/19 13:41:31;;;;;;;8.27;3.85;;;8.40;99.90;;;;;;5060679;28;20869;-68
2024/02/19 13:44:17;;;;;;;9.53;4.53;;;8.40;99.90;;;;;;5059415;28;20420;-67
2024/02/19 13:47:04;;;;;;;13.27;5.40;;;8.30;99.90;;;;;;5060575;28;20059;-68
2024/02/19 13:49:50;;;;;;;7.25;4.32;;;8.30;99.90;;;;;;5054441;28;20278;-67
2024/02/19 13:52:36;;;;;;;11.82;4.55;;;8.30;99.90;;;;;;5060073;28;20044;-67
2024/02/19 13:55:22;;;;;;;9.43;3.73;;;8.30;99.90;;;;;;5056623;28;20253;-67
2024/02/19 13:58:08;;;;;;;12.40;4.55;;;8.30;99.90;;;;;;5055534;28;20116;-67
2024/02/19 14:00:56;;;;;;;10.70;4.27;;;8.20;99.90;;;;;;5056709;28;20032;-68
2024/02/19 14:03:42;;;;;;;11.27;4.32;;;8.20;99.90;;;;;;5053097;28;20646;-68
2024/02/19 14:06:28;;;;;;;10.00;4.43;;;8.00;99.90;;;;;;5060626;28;20530;-68
2024/02/19 14:09:14;;;;;;;9.88;4.05;;;8.00;99.90;;;;;;5053673;28;20029;-69
2024/02/19 14:12:00;;;;;;;6.50;3.00;;;8.00;99.90;;;;;;5060639;28;20048;-68
2024/02/19 14:14:46;;;;;;;7.63;2.97;;;7.90;99.90;;;;;;5058715;28;20067;-69
2024/02/19 14:17:32;;;;;;;7.72;2.75;;;7.80;99.90;;;;;;5062696;28;20503;-69
2024/02/19 14:20:18;;;;;;;7.57;2.85;;;7.70;99.90;;;;;;5057190;28;20025;-69
2024/02/19 14:23:06;;;;;;;8.85;3.30;;;7.70;99.90;;;;;;5051961;28;20115;-69
2024/02/19 14:25:52;;;;;;;7.45;2.33;;;7.80;99.90;;;;;;5058616;28;20036;-69
2024/02/19 14:28:39;;;;;;;5.05;2.60;;;7.90;99.90;;;;;;5055150;28;20082;-69
2024/02/19 14:31:25;;;;;;;;;;;7.90;99.90;;;;;;5060542;28;20415;-68
2024/02/19 14:34:11;;;;;;;4.25;2.00;;;8.00;99.90;;;;;;5052094;28;20039;-68